Calendar window Calendar window
  ( Please enter dates as April 23, 2009 or 04/23/2009 )
 
Auction Title   Price Status Notes Date Ended
1209168 Laptop Computers (approx 100), Dell Latitude 2110 (14-2833#46 TahSD) JP (C10-3L)   Click to see pictures $2,811.00  Sold   Sep 16, 2014 7:30:00 PM MDT
1209006 Laptop Computers (approx 75), Dell Latitude 2110 (14-2833 #37 TahSD) JP (B2-4R)   Click to see pictures $2,200.99  Sold   Sep 16, 2014 7:32:04 PM MDT
1207084 All-in-One Computer, HP, TouchSmart 9100 (SplReImb) JP (C1-3)   Click to see pictures $305.00  Sold   Sep 16, 2014 7:33:34 PM MDT
1209054 Laptop Computers (approx 75), Dell Latitude 2110 (14-2833 #40 TahSD) JP (E6-2L)   Click to see pictures $2,424.99  Sold   Sep 16, 2014 7:44:46 PM MDT
1209095 Laptop Computers (approx 75), Dell Latitude 2110 (14-2833 #41 TahSD) JP (B3-4L)   Click to see pictures $2,650.00  Sold   Sep 16, 2014 7:48:19 PM MDT
1209104 Laptop Computers (approx 75), Dell Latitude 2110 (14-2833 #42 TahSD) JP (B5-4R)   Click to see pictures $2,700.00  Sold   Sep 16, 2014 7:50:12 PM MDT
1209043 Laptop Computers (approx 75), Dell Latitude 2110 (14-2833 #39 TahSD) JP (B2-4L)   Click to see pictures $2,700.00  Sold   Sep 16, 2014 7:50:34 PM MDT
1208360 Laptop Computers (approx 75), Dell Latitude 2110 (14-2833 #36 TahSD) JP (B1-2R)   Click to see pictures $2,605.00  Sold   Sep 16, 2014 7:51:06 PM MDT
1209116 Laptop Computers (approx 75), Dell Latitude 2110 (14-2833 #43 TahSD) JP (B6-4L)   Click to see pictures $2,950.00  Sold   Sep 16, 2014 7:51:29 PM MDT
1208356 Laptop Computers (approx 75), Dell Latitude 2110 (14-2833 #35 TahSD) JP (C6-4L)   Click to see pictures $2,700.00  Sold   Sep 16, 2014 7:51:35 PM MDT
1208345 Laptop Computers (approx 75), Dell Latitude 2110 (14-2833 #34 TahSD) JP (C1-5L)   Click to see pictures $2,650.00  Sold   Sep 16, 2014 7:51:39 PM MDT
1209159 Laptop Computers (approx 100), Dell Latitude 2110 (14-2833 #45 TahSD) JP (C9-3L)   Click to see pictures $3,750.00  Sold   Sep 16, 2014 7:51:45 PM MDT
1209130 Laptop Computers (approx 100), Dell Latitude 2110 (14-2833 #44 TahSD) JP (B7-4R)   Click to see pictures $4,150.00  Sold   Sep 16, 2014 7:52:58 PM MDT
1209176 Laptop Computers (approx 185), Dell Latitude 2110 (14-2833#47 TahSD) JP (C11-3L)   Click to see pictures $6,400.00  Sold   Sep 16, 2014 7:58:54 PM MDT
1209019 Laptop Computers (approx 75), Dell Latitude 2110 (14-2833 #38 TahSD) JP (C1-5R)   Click to see pictures $3,050.00  Sold   Sep 16, 2014 7:59:35 PM MDT
1207281 Laptops (ct.46 approx) Dual Core, Lenovo X61, R61 (14-2833 #30) JP (C2-4R)   Click to see pictures $1,300.00  Sold   Sep 16, 2014 8:00:00 PM MDT
1208033 Laptops (ct.63 approx) Dual Core, Lenovo, R61 (14-2833 #32) JP (C5-4R)   Click to see pictures $1,576.00  Sold   Sep 16, 2014 8:00:00 PM MDT
1208323 Pentium D & P4 CPUs (Ct.45), Mostly Dell GX620 (14-2833 #48 TahSD) JA (C10-2R)   Click to see pictures $525.00  Sold   Sep 16, 2014 8:00:00 PM MDT
1208330 Dual Core & P4 CPUs (Ct.45), Dell GX620 & 745 (14-2833 #49 TahSD) JA (C11-2L)   Click to see pictures $525.00  Sold   Sep 16, 2014 8:00:00 PM MDT
1208335 Dual Core & P4 CPUs (Ct.60 Approx), Dell 745 & More (C4K) JA (C12-1L)   Click to see pictures $504.99  Sold   Sep 16, 2014 8:00:00 PM MDT
1208343 Misc. Computers & Related Equipments, Dell, HP & More (NoUPC) JA (D4-2L)   Click to see pictures $345.00  Sold   Sep 16, 2014 8:00:00 PM MDT
1208344 Laptops & Misc Computer Equipments, Dell, HP, IBM & More (NoUPC) JA (C2-2R)   Click to see pictures $786.99  Sold   Sep 16, 2014 8:00:00 PM MDT
1208346 LCD Monitors (17" - 19") - 1 Pallet, Dell & More (14-2949 #25 DSHS) JA (C9-1R)   Click to see pictures $102.50  Not sold   Sep 16, 2014 8:00:00 PM MDT
1208357 LCD Monitors (17" - 19") - 1 Pallet, Dell & More (14-2949 #26 DSHS) JA (C7-1L)   Click to see pictures $96.00  Not sold   Sep 16, 2014 8:00:00 PM MDT
1208363 Medical Exam Table, Welch Allyn (14-2949 #16 DSHS) JA (D6-1R)   Click to see pictures $78.79  Sold   Sep 16, 2014 8:00:00 PM MDT
1208367 Fire & Impact Resistant File Cabinet - 4 Doors, Hon (NoUPC) JA (D4-1L)   Click to see pictures $202.50  Sold   Sep 16, 2014 8:00:00 PM MDT
1208370 Treadmill, Cybex Pro + / Stableflex (14-2398 #2 GRC) JA (C4-2)   Click to see pictures $202.50  Sold   Sep 16, 2014 8:00:00 PM MDT
1208374 Fiberglass Pipe Insulation (6 Cases), Owens Corning (14-2949 #27 DSHS) JA(C5-1L)   Click to see pictures $81.00  Sold   Sep 16, 2014 8:00:00 PM MDT
1208359 LCD Monitors (17" - 19") - 1 Pallet, Dell & More (NoUPC) JA (D5-2L)   Click to see pictures $163.27  Sold   Sep 16, 2014 8:04:09 PM MDT
1208594 Upper Body Cycle Pedal Machine, HealthSouth Biodex (14-2983 #26 FPSD) JA (C11-1)   Click to see pictures $73.00  Sold   Sep 16, 2014 8:04:23 PM MDT
1208376 New & Used Toners - 1 Plt, HP, Canon, & More (14-2949 #29 DSHS) JA (D2-3L)   Click to see pictures $367.52  Sold   Sep 16, 2014 8:10:30 PM MDT
1208331 Dual Core & P4 CPUs (Ct.80 Approx), Dell GX620 & 745 (C4K) JA (C11-2R)   Click to see pictures $1,525.00  Sold   Sep 16, 2014 8:13:36 PM MDT
1209200 Laptops (approx. 90) Dual Core, Lenovo, R61 (14-2833 #50) JP (C12-3R)   Click to see pictures $3,100.00  Sold   Sep 16, 2014 8:16:13 PM MDT
1207416 Laptops (ct.66 approx) Dual Core, Lenovo, R61 (14-2833 #31) JP (C3-4R)   Click to see pictures $2,046.00  Sold   Sep 16, 2014 8:16:28 PM MDT
1207334 Laptops (ct.235 approx), Lenovo, S10 (14-2833 #33) JP (C3-4L)   Click to see pictures $8,900.00  Sold   Sep 16, 2014 8:19:05 PM MDT
1201998 Printing Press: Heidelberg SpeedMaster SM 52-2 (14-2560 #1) BH (Offsite)   Click to see pictures $21,000.00  Reserve not met   Sep 16, 2014 9:00:00 PM MDT
1208785 2003 Chevrolet S10 3dr Extended Cab Rwd SB (14-3151 DOT410) WC (EF11)   Click to see pictures $4,161.00  Not sold   Sep 16, 2014 9:00:00 PM MDT
1208799 2003 Chevrolet S10 3dr Extended Cab Rwd SB (14-3150 DOT410) WC (EF7)   Click to see pictures $3,439.00  Sold   Sep 16, 2014 9:00:00 PM MDT
1208811 1999 Chevrolet Astro, 3 Dr STD AWD Passenger Van (14-3092 WSP) WC (EF5)   Click to see pictures $3,000.00  Sold   Sep 16, 2014 9:00:00 PM MDT
1208961 2007 Chevrolet Silverado 1500, 4dr Extended Cab 6.5 ft. (14-3223 WSP) WC (1E)   Click to see pictures $6,200.00  Sold   Sep 16, 2014 9:06:31 PM MDT
1208864 1999 Ford Expedition, 4 Dr Eddie Bauer 4WD SUV (14-3094 WSP) WC (EF2)   Click to see pictures $2,400.00  Sold   Sep 16, 2014 9:27:06 PM MDT
1208851 2008 Chevrolet Tahoe, 4x2 4dr Police SUV (14-3097 WSP) WC (EF4)   Click to see pictures $8,300.00  Sold   Sep 16, 2014 9:32:12 PM MDT
1209765 LCD Monitors (1 pallet), Assorted (NO UPC) JP (D5-3R)   Click to see pictures $128.50  Sold   Sep 17, 2014 7:30:00 PM MDT
1209740 LCD Monitors (approx 49), Dell (14-2833 #52 Tah SD) JP (C9-2R)   Click to see pictures $152.50  Sold   Sep 17, 2014 7:30:44 PM MDT
1209833 17" LCD Monitors (approx 103), Samsung (14-2940 #44) JP (C9-1L)   Click to see pictures $520.00  Sold   Sep 17, 2014 7:45:13 PM MDT
1208608 Centrifuge, Sigma 4K15 (NoUPC) JA (C7-2R)   Click to see pictures $256.00  Sold   Sep 17, 2014 8:00:00 PM MDT
1208618 Disc / Belt Sander, Powermatic 30B (14-3016 #7 SKSD) JA (D5-1L)   Click to see pictures $455.00  Sold   Sep 17, 2014 8:00:00 PM MDT
1208651 Transmission Jack, ATD Model Unknown (14-2703 #5 DES) JA (C3-1R)   Click to see pictures $242.50  Sold   Sep 17, 2014 8:00:00 PM MDT
1208663 60" LCD Television, Sharp LC-60LE830U (NoUPC) JA (C1-2R)   Click to see pictures $504.99  Sold   Sep 17, 2014 8:00:00 PM MDT
1208687 Lower Back Exercise Machine, Nautilus (14-3196 #22 KSD) JA (C11-1R)   Click to see pictures $41.00  Sold   Sep 17, 2014 8:00:00 PM MDT
 
« ‹ Prev   1 2 3 4 5   Next »
Computer Translation: [Hide | Show]
 
Customer Support: support@publicsurplus.com | Copyright 1999-2014 The Public Group, LLC. | All rights reserved.